createdAt,value
2023-03-17T00:00:12.346Z,60.88
2023-03-17T00:03:00.038Z,61.33
2023-03-17T00:05:52.136Z,61.48
2023-03-17T00:08:51.507Z,61.61
2023-03-17T00:11:38.367Z,61.01
2023-03-17T00:14:25.526Z,61.05
2023-03-17T00:17:12.906Z,61.24
2023-03-17T00:20:00.793Z,61.12
2023-03-17T00:22:47.678Z,61.40
2023-03-17T00:25:39.796Z,61.30
2023-03-17T00:28:26.639Z,61.80
2023-03-17T00:31:17.342Z,61.16
2023-03-17T00:34:06.038Z,61.78
2023-03-17T00:36:54.054Z,61.49
2023-03-17T00:39:42.788Z,61.34
2023-03-17T00:42:29.995Z,61.78
2023-03-17T00:45:16.934Z,61.82
2023-03-17T00:48:05.240Z,61.61
2023-03-17T00:50:52.147Z,61.26
2023-03-17T00:53:40.582Z,61.64
2023-03-17T00:56:36.517Z,61.42
2023-03-17T00:59:25.655Z,61.03
2023-03-17T01:02:13.286Z,61.29
2023-03-17T01:05:06.207Z,61.36
2023-03-17T01:07:54.988Z,61.54
2023-03-17T01:10:45.389Z,61.15
2023-03-17T01:13:33.522Z,61.30
2023-03-17T01:16:20.999Z,61.51
2023-03-17T01:19:08.019Z,61.32
2023-03-17T01:21:55.079Z,61.58
2023-03-17T01:24:42.076Z,61.41
2023-03-17T01:27:29.140Z,61.85
2023-03-17T01:30:16.121Z,61.90
2023-03-17T01:33:03.213Z,62.08
2023-03-17T01:35:55.030Z,61.44
2023-03-17T01:38:42.194Z,61.34
2023-03-17T01:41:29.178Z,61.41
2023-03-17T01:44:16.283Z,61.68
2023-03-17T01:47:04.903Z,61.55
2023-03-17T01:49:57.148Z,61.38
2023-03-17T01:52:44.375Z,61.52
2023-03-17T01:55:36.068Z,61.83
2023-03-17T01:58:23.155Z,61.32
2023-03-17T02:01:10.966Z,61.55
2023-03-17T02:04:01.768Z,61.48
2023-03-17T02:06:57.426Z,62.25
2023-03-17T02:09:47.634Z,61.95
2023-03-17T02:12:34.953Z,61.85
2023-03-17T02:15:22.741Z,61.33
2023-03-17T02:18:32.575Z,61.92
2023-03-17T02:22:12.446Z,61.60
2023-03-17T02:25:03.247Z,61.86
2023-03-17T02:27:55.514Z,61.46
2023-03-17T02:30:44.198Z,62.19
2023-03-17T02:33:31.797Z,61.44
2023-03-17T02:36:18.957Z,61.45
2023-03-17T02:39:06.890Z,61.98
2023-03-17T02:41:55.016Z,61.82
2023-03-17T02:44:41.955Z,61.60
2023-03-17T02:47:28.974Z,62.16
2023-03-17T02:50:16.208Z,62.35
2023-03-17T02:53:03.497Z,61.45
2023-03-17T02:55:50.424Z,61.46
2023-03-17T02:58:37.692Z,61.75
2023-03-17T03:01:24.712Z,62.31
2023-03-17T03:04:12.005Z,61.41
2023-03-17T03:06:59.038Z,61.57
2023-03-17T03:09:46.147Z,62.08
2023-03-17T03:12:33.117Z,61.51
2023-03-17T03:15:20.047Z,62.32
2023-03-17T03:18:07.157Z,62.39
2023-03-17T03:20:54.428Z,62.39
2023-03-17T03:23:41.364Z,62.41
2023-03-17T03:26:28.347Z,61.61
2023-03-17T03:29:15.423Z,61.54
2023-03-17T03:32:02.369Z,61.77
2023-03-17T03:34:49.459Z,61.60
2023-03-17T03:37:36.543Z,61.55
2023-03-17T03:40:23.983Z,61.50
2023-03-17T03:43:22.504Z,61.84
2023-03-17T03:46:10.898Z,62.51
2023-03-17T03:48:57.909Z,61.58
2023-03-17T03:51:44.878Z,62.56
2023-03-17T03:54:31.883Z,62.52
2023-03-17T03:57:18.949Z,62.55
2023-03-17T04:00:05.823Z,62.02
2023-03-17T04:02:59.030Z,62.56
2023-03-17T04:05:46.209Z,61.70
2023-03-17T04:08:33.261Z,61.92
2023-03-17T04:11:20.374Z,61.90
2023-03-17T04:14:07.619Z,62.32
2023-03-17T04:16:54.561Z,62.21
2023-03-17T04:19:42.194Z,61.98
2023-03-17T04:22:31.458Z,61.70
2023-03-17T04:25:18.492Z,62.71
2023-03-17T04:28:05.324Z,62.70
2023-03-17T04:30:52.341Z,62.09
2023-03-17T04:33:39.267Z,62.69
2023-03-17T04:36:27.268Z,61.96
2023-03-17T04:39:14.840Z,61.81
2023-03-17T04:42:02.137Z,62.41
2023-03-17T04:44:49.120Z,62.18
2023-03-17T04:47:36.066Z,62.19
2023-03-17T04:50:23.806Z,62.21
2023-03-17T04:53:10.823Z,62.53
2023-03-17T04:55:57.753Z,62.45
2023-03-17T04:58:30.841Z,62.52
2023-03-17T05:00:59.104Z,62.88
2023-03-17T05:03:28.326Z,62.42
2023-03-17T05:06:00.540Z,62.14
2023-03-17T05:08:31.069Z,62.27
2023-03-17T05:10:58.743Z,62.25
2023-03-17T05:13:27.209Z,62.68
2023-03-17T05:15:55.747Z,62.78
2023-03-17T05:18:25.514Z,62.29
2023-03-17T05:20:52.799Z,62.04
2023-03-17T05:23:20.760Z,62.60
2023-03-17T05:25:48.504Z,62.88
2023-03-17T05:28:15.687Z,62.47
2023-03-17T05:30:43.686Z,62.88
2023-03-17T05:33:10.677Z,62.37
2023-03-17T05:35:37.958Z,62.51
2023-03-17T05:38:04.987Z,63.13
2023-03-17T05:40:32.736Z,62.86
2023-03-17T05:42:59.778Z,62.61
2023-03-17T05:45:26.898Z,63.00
2023-03-17T05:47:53.798Z,62.51
2023-03-17T05:50:20.631Z,62.56
2023-03-17T05:52:48.807Z,62.55
2023-03-17T05:55:16.164Z,62.56
2023-03-17T05:57:43.205Z,62.50
2023-03-17T06:00:12.776Z,63.08
2023-03-17T06:02:40.303Z,63.19
2023-03-17T06:05:08.941Z,62.43
2023-03-17T06:07:50.893Z,62.46
2023-03-17T06:10:18.846Z,62.89
2023-03-17T06:12:46.340Z,62.47
2023-03-17T06:15:13.710Z,62.66
2023-03-17T06:17:40.552Z,62.67
2023-03-17T06:20:08.214Z,63.04
2023-03-17T06:22:35.331Z,63.42
2023-03-17T06:25:02.213Z,62.73
2023-03-17T06:27:29.232Z,62.59
2023-03-17T06:29:57.480Z,63.31
2023-03-17T06:32:24.337Z,62.94
2023-03-17T06:34:51.951Z,63.25
2023-03-17T06:37:19.355Z,63.32
2023-03-17T06:39:46.324Z,63.63
2023-03-17T06:42:13.324Z,63.47
2023-03-17T06:44:41.635Z,63.17
2023-03-17T06:47:08.737Z,63.63
2023-03-17T06:49:35.702Z,63.06
2023-03-17T06:52:02.619Z,62.77
2023-03-17T06:54:29.499Z,63.18
2023-03-17T06:56:56.629Z,62.79
2023-03-17T06:59:23.884Z,63.72
2023-03-17T07:01:52.067Z,63.55
2023-03-17T07:04:21.047Z,63.32
2023-03-17T07:06:48.212Z,63.79
2023-03-17T07:09:15.652Z,62.83
2023-03-17T07:11:43.140Z,63.22
2023-03-17T07:14:10.187Z,63.38
2023-03-17T07:16:37.720Z,63.47
2023-03-17T07:19:05.039Z,63.42
2023-03-17T07:21:31.925Z,62.88
2023-03-17T07:23:58.956Z,63.45
2023-03-17T07:26:26.529Z,63.40
2023-03-17T07:28:53.489Z,62.95
2023-03-17T07:31:20.761Z,63.21
2023-03-17T07:33:47.935Z,63.05
2023-03-17T07:36:15.868Z,63.72
2023-03-17T07:38:43.807Z,63.14
2023-03-17T07:41:11.077Z,63.01
2023-03-17T07:43:38.546Z,63.45
2023-03-17T07:46:06.560Z,63.76
2023-03-17T07:48:36.623Z,63.90
2023-03-17T07:51:03.687Z,63.87
2023-03-17T07:53:30.799Z,63.93
2023-03-17T07:55:57.672Z,63.30
2023-03-17T07:58:24.698Z,63.90
2023-03-17T08:00:51.801Z,63.68
2023-03-17T08:03:19.620Z,63.68
2023-03-17T08:05:53.359Z,64.19
2023-03-17T08:08:22.283Z,64.37
2023-03-17T08:10:50.639Z,63.89
2023-03-17T08:13:18.814Z,64.27
2023-03-17T08:15:46.505Z,64.65
2023-03-17T08:18:13.496Z,64.10
2023-03-17T08:20:40.790Z,64.47
2023-03-17T08:23:07.690Z,64.48
2023-03-17T08:25:34.623Z,64.35
2023-03-17T08:28:01.881Z,64.93
2023-03-17T08:30:32.390Z,64.87
2023-03-17T08:33:00.302Z,64.50
2023-03-17T08:35:27.302Z,64.81
2023-03-17T08:37:56.303Z,65.05
2023-03-17T08:40:23.519Z,64.86
2023-03-17T08:42:50.709Z,65.09
2023-03-17T08:45:19.458Z,64.91
2023-03-17T08:47:47.675Z,65.39
2023-03-17T08:50:22.080Z,65.49
2023-03-17T08:52:49.587Z,65.20
2023-03-17T08:55:16.678Z,65.49
2023-03-17T08:57:44.867Z,65.70
2023-03-17T09:00:14.098Z,65.42
2023-03-17T09:02:43.522Z,65.71
2023-03-17T09:05:17.016Z,65.79
2023-03-17T09:07:44.646Z,65.81
2023-03-17T09:10:13.805Z,66.03
2023-03-17T09:12:40.948Z,65.95
2023-03-17T09:15:08.858Z,66.29
2023-03-17T09:17:36.177Z,66.13
2023-03-17T09:20:03.651Z,66.34
2023-03-17T09:22:31.100Z,66.11
2023-03-17T09:24:58.711Z,66.57
2023-03-17T09:27:25.865Z,66.68
2023-03-17T09:29:52.837Z,66.43
2023-03-17T09:32:19.724Z,66.95
2023-03-17T09:34:49.157Z,67.29
2023-03-17T09:37:18.034Z,66.73
2023-03-17T09:39:44.948Z,67.29
2023-03-17T09:42:23.750Z,66.85
2023-03-17T09:45:18.008Z,67.53
2023-03-17T09:48:06.114Z,66.85
2023-03-17T09:50:45.466Z,66.84
2023-03-17T09:53:35.926Z,66.97
2023-03-17T09:56:08.693Z,67.01
2023-03-17T09:58:38.003Z,67.79
2023-03-17T10:01:05.681Z,67.31
2023-03-17T10:03:34.192Z,68.38
2023-03-17T10:06:23.166Z,68.27
2023-03-17T10:09:27.219Z,67.63
2023-03-17T10:12:26.794Z,68.48
2023-03-17T10:15:06.819Z,67.83
2023-03-17T10:17:40.701Z,68.71
2023-03-17T10:20:40.288Z,68.32
2023-03-17T10:23:15.273Z,67.96
2023-03-17T10:25:42.786Z,67.80
2023-03-17T10:28:27.758Z,69.00
2023-03-17T10:30:54.927Z,69.18
2023-03-17T10:33:22.414Z,68.04
2023-03-17T10:35:49.508Z,68.19
2023-03-17T10:38:22.124Z,68.24
2023-03-17T10:41:00.738Z,68.24
2023-03-17T10:43:36.331Z,68.78
2023-03-17T10:46:06.538Z,68.74
2023-03-17T10:48:38.734Z,69.07
2023-03-17T10:51:09.335Z,69.11
2023-03-17T10:53:43.854Z,69.34
2023-03-17T10:56:31.020Z,68.92
2023-03-17T10:59:06.486Z,69.46
2023-03-17T11:01:44.198Z,69.44
2023-03-17T11:04:32.331Z,69.55
2023-03-17T11:07:05.415Z,70.06
2023-03-17T11:09:36.927Z,69.93
2023-03-17T11:12:19.220Z,70.03
2023-03-17T11:14:48.386Z,70.54
2023-03-17T11:17:36.471Z,70.97
2023-03-17T11:20:21.147Z,70.29
2023-03-17T11:23:22.478Z,70.09
2023-03-17T11:25:58.732Z,70.79
2023-03-17T11:28:33.666Z,70.18
2023-03-17T11:31:27.957Z,70.70
2023-03-17T11:34:14.294Z,70.37
2023-03-17T11:37:10.210Z,70.46
2023-03-17T11:40:03.122Z,70.57
2023-03-17T11:42:54.357Z,71.16
2023-03-17T11:45:51.970Z,71.35
2023-03-17T11:48:47.545Z,71.56
2023-03-17T11:51:43.363Z,70.80
2023-03-17T11:54:18.259Z,70.98
2023-03-17T11:56:48.502Z,71.66
2023-03-17T11:59:39.654Z,71.54
2023-03-17T12:02:19.328Z,71.52
2023-03-17T12:05:09.993Z,70.91
2023-03-17T12:07:44.671Z,71.46
2023-03-17T12:10:31.222Z,71.19
2023-03-17T12:13:12.191Z,70.98
2023-03-17T12:15:47.562Z,71.18
2023-03-17T12:18:31.265Z,71.05
2023-03-17T12:21:02.157Z,71.12
2023-03-17T12:23:38.372Z,70.76
2023-03-17T12:26:19.142Z,71.20
2023-03-17T12:28:58.255Z,71.24
2023-03-17T12:31:58.682Z,70.63
2023-03-17T12:34:42.841Z,70.97
2023-03-17T12:37:09.966Z,70.64
2023-03-17T12:39:37.657Z,70.39
2023-03-17T12:42:43.615Z,70.38
2023-03-17T12:45:48.799Z,70.68
2023-03-17T12:48:53.254Z,70.28
2023-03-17T12:51:52.647Z,69.96
2023-03-17T12:54:26.512Z,69.98
2023-03-17T12:57:00.223Z,69.81
2023-03-17T12:59:28.239Z,69.76
2023-03-17T13:02:15.559Z,69.68
2023-03-17T13:04:57.959Z,69.82
2023-03-17T13:07:46.933Z,69.58
2023-03-17T13:10:37.607Z,69.63
2023-03-17T13:13:10.544Z,68.94
2023-03-17T13:15:38.714Z,69.34
2023-03-17T13:18:14.588Z,69.31
2023-03-17T13:20:44.712Z,69.27
2023-03-17T13:23:11.687Z,69.43
2023-03-17T13:25:48.171Z,69.10
2023-03-17T13:28:15.464Z,69.14
2023-03-17T13:30:57.151Z,68.74
2023-03-17T13:33:31.454Z,69.03
2023-03-17T13:36:17.366Z,68.83
2023-03-17T13:39:18.713Z,68.64
2023-03-17T13:42:12.068Z,68.94
2023-03-17T13:45:08.100Z,68.77
2023-03-17T13:47:38.496Z,68.61
2023-03-17T13:50:14.963Z,68.78
2023-03-17T13:53:02.948Z,68.39
2023-03-17T13:55:37.936Z,68.44
2023-03-17T13:58:12.128Z,68.44
2023-03-17T14:00:41.468Z,68.51
2023-03-17T14:03:20.743Z,68.78
2023-03-17T14:05:50.342Z,67.84
2023-03-17T14:08:27.654Z,67.98
2023-03-17T14:11:00.755Z,68.18
2023-03-17T14:14:26.098Z,68.08
2023-03-17T14:17:12.222Z,67.55
2023-03-17T14:19:41.807Z,67.81
2023-03-17T14:22:25.548Z,67.92
2023-03-17T14:24:54.492Z,67.22
2023-03-17T14:27:24.090Z,67.72
2023-03-17T14:29:52.394Z,67.40
2023-03-17T14:32:23.823Z,67.50
2023-03-17T14:34:56.823Z,67.38
2023-03-17T14:37:24.427Z,67.45
2023-03-17T14:39:54.648Z,67.77
2023-03-17T14:42:28.450Z,67.50
2023-03-17T14:45:05.578Z,68.04
2023-03-17T14:47:40.044Z,67.68
2023-03-17T14:50:17.524Z,67.79
2023-03-17T14:52:44.779Z,67.67
2023-03-17T14:55:14.636Z,67.85
2023-03-17T14:57:41.870Z,67.72
2023-03-17T15:00:34.237Z,67.55
2023-03-17T15:03:05.157Z,68.14
2023-03-17T15:05:40.842Z,68.02
2023-03-17T15:08:38.275Z,67.90
2023-03-17T15:11:06.856Z,68.15
2023-03-17T15:13:37.037Z,67.47
2023-03-17T15:16:17.001Z,68.15
2023-03-17T15:18:44.926Z,68.34
2023-03-17T15:21:32.496Z,68.31
2023-03-17T15:24:19.736Z,68.17
2023-03-17T15:26:46.902Z,68.19
2023-03-17T15:29:13.810Z,68.42
2023-03-17T15:31:40.799Z,68.43
2023-03-17T15:34:13.484Z,68.44
2023-03-17T15:36:40.740Z,68.02
2023-03-17T15:39:09.812Z,68.59
2023-03-17T15:41:36.853Z,68.30
2023-03-17T15:44:05.214Z,68.34
2023-03-17T15:46:33.631Z,68.02
2023-03-17T15:49:01.047Z,68.28
2023-03-17T15:51:28.075Z,68.26
2023-03-17T15:53:55.098Z,67.79
2023-03-17T15:56:22.374Z,68.04
2023-03-17T15:58:52.327Z,68.16
2023-03-17T16:01:20.068Z,68.24
2023-03-17T16:03:48.276Z,68.15
2023-03-17T16:06:21.293Z,67.80
2023-03-17T16:08:49.527Z,67.88
2023-03-17T16:11:20.140Z,67.68
2023-03-17T16:13:47.634Z,67.89
2023-03-17T16:16:23.455Z,68.46
2023-03-17T16:18:51.659Z,67.90
2023-03-17T16:21:19.337Z,68.01
2023-03-17T16:23:48.479Z,68.23
2023-03-17T16:26:17.125Z,67.66
2023-03-17T16:28:46.265Z,67.75
2023-03-17T16:31:30.237Z,68.34
2023-03-17T16:33:57.397Z,68.06
2023-03-17T16:36:25.581Z,67.97
2023-03-17T16:38:53.344Z,68.24
2023-03-17T16:41:23.452Z,67.83
2023-03-17T16:43:53.719Z,68.06
2023-03-17T16:46:22.628Z,67.92
2023-03-17T16:48:50.720Z,68.04
2023-03-17T16:51:18.127Z,67.92
2023-03-17T16:53:45.766Z,68.25
2023-03-17T16:56:18.871Z,67.81
2023-03-17T16:58:47.025Z,67.92
2023-03-17T17:01:23.576Z,68.01
2023-03-17T17:03:51.224Z,68.03
2023-03-17T17:06:19.993Z,68.28
2023-03-17T17:08:48.353Z,67.74
2023-03-17T17:11:17.232Z,68.44
2023-03-17T17:13:46.758Z,67.92
2023-03-17T17:16:28.319Z,68.35
2023-03-17T17:18:56.061Z,68.05
2023-03-17T17:21:23.251Z,68.53
2023-03-17T17:23:52.772Z,67.58
2023-03-17T17:26:20.177Z,68.13
2023-03-17T17:28:47.115Z,68.26
2023-03-17T17:31:13.994Z,69.11
2023-03-17T17:33:41.047Z,68.52
2023-03-17T17:36:34.571Z,68.37
2023-03-17T17:39:21.492Z,68.56
2023-03-17T17:42:08.502Z,68.45
2023-03-17T17:44:55.302Z,68.82
2023-03-17T17:47:42.319Z,68.42
2023-03-17T17:50:32.647Z,68.25
2023-03-17T17:53:19.993Z,68.68
2023-03-17T17:56:08.636Z,68.41
2023-03-17T17:58:55.550Z,68.58
2023-03-17T18:01:42.448Z,68.47
2023-03-17T18:04:32.510Z,68.56
2023-03-17T18:07:19.402Z,68.52
2023-03-17T18:10:06.481Z,68.51
2023-03-17T18:12:53.619Z,68.52
2023-03-17T18:15:41.076Z,68.14
2023-03-17T18:18:28.496Z,68.25
2023-03-17T18:21:15.530Z,68.63
2023-03-17T18:24:02.428Z,68.68
2023-03-17T18:26:49.301Z,68.74
2023-03-17T18:29:36.326Z,68.96
2023-03-17T18:32:24.934Z,68.57
2023-03-17T18:35:12.048Z,68.97
2023-03-17T18:37:59.103Z,68.83
2023-03-17T18:40:46.237Z,68.91
2023-03-17T18:43:33.280Z,69.31
2023-03-17T18:46:20.746Z,69.32
2023-03-17T18:49:07.803Z,69.74
2023-03-17T18:51:55.048Z,69.59
2023-03-17T18:54:42.941Z,69.83
2023-03-17T18:57:29.922Z,70.02
2023-03-17T19:00:17.184Z,70.25
2023-03-17T19:03:04.582Z,71.04
2023-03-17T19:05:51.651Z,70.83
2023-03-17T19:08:38.453Z,71.52
2023-03-17T19:11:27.503Z,71.74
2023-03-17T19:14:14.419Z,72.19
2023-03-17T19:17:01.494Z,71.72
2023-03-17T19:19:48.472Z,71.89
2023-03-17T19:22:35.717Z,72.52
2023-03-17T19:25:23.011Z,72.71
2023-03-17T19:28:09.868Z,72.82
2023-03-17T19:30:56.814Z,72.87
2023-03-17T19:33:43.925Z,73.13
2023-03-17T19:36:32.654Z,73.11
2023-03-17T19:39:19.494Z,73.60
2023-03-17T19:42:06.526Z,73.80
2023-03-17T19:44:53.698Z,73.96
2023-03-17T19:47:40.738Z,74.04
2023-03-17T19:50:28.590Z,74.47
2023-03-17T19:53:15.500Z,74.46
2023-03-17T19:56:03.498Z,75.07
2023-03-17T19:58:50.470Z,74.59
2023-03-17T20:01:37.580Z,74.32
2023-03-17T20:04:25.199Z,74.72
2023-03-17T20:07:12.198Z,74.48
2023-03-17T20:09:59.253Z,74.73
2023-03-17T20:12:46.354Z,75.41
2023-03-17T20:15:33.538Z,75.18
2023-03-17T20:18:20.657Z,75.14
2023-03-17T20:21:14.461Z,75.59
2023-03-17T20:24:01.382Z,75.67
2023-03-17T20:26:48.359Z,75.31
2023-03-17T20:29:35.950Z,75.86
2023-03-17T20:32:23.605Z,75.54
2023-03-17T20:35:10.619Z,75.56
2023-03-17T20:37:57.467Z,75.97
2023-03-17T20:40:45.764Z,76.21
2023-03-17T20:43:32.793Z,76.09
2023-03-17T20:46:19.793Z,76.40
2023-03-17T20:49:09.690Z,76.65
2023-03-17T20:51:57.139Z,76.23
2023-03-17T20:54:43.983Z,76.59
2023-03-17T20:57:36.939Z,76.77
2023-03-17T21:00:24.379Z,76.47
2023-03-17T21:03:11.516Z,76.63
2023-03-17T21:05:58.453Z,76.99
2023-03-17T21:08:45.397Z,78.08
2023-03-17T21:11:38.128Z,78.30
2023-03-17T21:14:26.326Z,77.93
2023-03-17T21:17:13.370Z,78.51
2023-03-17T21:20:00.535Z,77.62
2023-03-17T21:22:47.630Z,77.39
2023-03-17T21:25:34.725Z,77.69
2023-03-17T21:28:22.206Z,77.80
2023-03-17T21:31:10.059Z,77.27
2023-03-17T21:33:57.227Z,77.52
2023-03-17T21:36:44.189Z,77.51
2023-03-17T21:39:31.416Z,77.95
2023-03-17T21:42:18.689Z,77.40
2023-03-17T21:45:05.712Z,77.49
2023-03-17T21:47:52.894Z,78.02
2023-03-17T21:50:40.247Z,78.04
2023-03-17T21:53:27.558Z,77.61
2023-03-17T21:56:14.354Z,77.66
2023-03-17T21:59:01.636Z,77.63
2023-03-17T22:01:48.612Z,77.82
2023-03-17T22:04:35.542Z,78.06
2023-03-17T22:07:22.418Z,77.81
2023-03-17T22:10:13.207Z,78.21
2023-03-17T22:13:00.049Z,77.56
2023-03-17T22:15:47.052Z,78.18
2023-03-17T22:18:33.907Z,77.45
2023-03-17T22:21:21.060Z,77.90
2023-03-17T22:24:08.233Z,77.52
2023-03-17T22:26:55.217Z,78.26
2023-03-17T22:29:42.111Z,78.10
2023-03-17T22:32:29.583Z,77.94
2023-03-17T22:35:16.472Z,77.77
2023-03-17T22:38:03.526Z,78.22
2023-03-17T22:40:50.680Z,78.17
2023-03-17T22:43:37.715Z,78.27
2023-03-17T22:46:24.973Z,77.89
2023-03-17T22:49:11.970Z,77.73
2023-03-17T22:51:59.316Z,77.75
2023-03-17T22:54:46.248Z,77.96
2023-03-17T22:57:33.129Z,78.28
2023-03-17T23:00:20.985Z,78.11
2023-03-17T23:03:07.902Z,78.52
2023-03-17T23:05:54.903Z,78.09
2023-03-17T23:08:41.806Z,78.09
2023-03-17T23:11:31.788Z,77.70
2023-03-17T23:14:18.763Z,77.83
2023-03-17T23:17:05.855Z,78.02
2023-03-17T23:19:52.913Z,78.31
2023-03-17T23:22:40.004Z,78.41
2023-03-17T23:25:27.121Z,77.85
2023-03-17T23:28:14.329Z,78.44
2023-03-17T23:31:02.910Z,78.29
2023-03-17T23:33:50.146Z,78.47
2023-03-17T23:36:37.781Z,77.98
2023-03-17T23:39:24.755Z,78.67
2023-03-17T23:42:11.558Z,78.46
2023-03-17T23:44:58.871Z,78.47
2023-03-17T23:47:45.936Z,78.39
2023-03-17T23:50:34.343Z,78.82
2023-03-17T23:53:21.429Z,78.46
2023-03-17T23:56:08.424Z,78.62
2023-03-17T23:58:55.483Z,78.62
